Terminal Aerodrome Forecast
Issued by NWS

Home | Current Version | Previous Version | Graphics & Text | Print | Product List | Glossary On
Versions: 1 2 3 4 5 6 7 8 9 10 11 12 13 14 15 16 17
000
FTUS42 KMHX 310500
TAFOAJ
TAF
KOAJ 310540Z 3106/0106 00000KT P6SM SKC
     FM310800 00000KT 3SM BR SCT005
     FM311000 00000KT 1SM BR BKN003
     FM311300 17008KT P6SM SCT040
      AMD LTD TO CLD VIS AND WIND=

USA.gov is the U.S. government's official web portal to all federal, state and local government web resources and services.